Airfield :
LOGIN :

Register | Disclaimer

   EN    FR    IT 

 










Legend :    VFR   Marginal VFR   IFR   Intensive IFR   Very Intensive IFR
Visi :
Ceiling :
>= 8 km
>= 3000ft
5 to 8 km
1000 to 3000 ft
1500m to 5 km
500 to 1000 ft
800 to 1500m
200 to 500 ft
< 800m
< 200 ft
Symbols :   Thunderstorms  Fog  Heavy snow  Heavy precipitations  Wind > 20 kt
SIGMETs :     Misc.  Thunderstorms  Icing  Turbulence  Mountain Waves  Volcanic Ashes






- Airport Elevation : 53 ft
- IATA code : AGP


LEMG - Malaga

CURRENT METAR :
  • 181230Z 15008KT 110V200 9999 FEW021 20/14 Q1015 NOSIG

EXPIRED METARs :
  • 181200Z 14010KT 090V160 9999 FEW023 20/14 Q1015 NOSIG
  • 181130Z 13008KT 100V160 9999 FEW023 20/14 Q1015 NOSIG
  • 181100Z 13008KT 050V170 9999 FEW023 20/14 Q1016 NOSIG
  • 181030Z 13007KT 100V160 9999 FEW025 20/14 Q1015 NOSIG
  • 181000Z 13006KT 090V160 9999 FEW027 19/14 Q1016 NOSIG
  • 180930Z 12006KT 080V190 9999 SCT023 19/13 Q1016 NOSIG
  • 180900Z 12006KT 080V150 9999 SCT025 19/13 Q1015 NOSIG
  • 180830Z 13004KT 080V190 9999 SCT027 19/13 Q1015 NOSIG
  • 180800Z 15003KT 120V200 9999 SCT027 18/13 Q1015 NOSIG

TAF TAF LEMG
Valid from the 18 at 12:00 until the 19 at 12:00 UTC


181100Z 1812/1912 13008KT 9999 FEW020 TX23/1815Z TN14/1906Z
PROB30
TEMPO 1900/1906 BKN014
PROB30
TEMPO 1907/1912 14015G26KT



MET'MAP, your aeronautical weather chart ! - Copyright ORBIFLY December 2007 - Disclaimer

ORBIFLY MET'MAP TEAM :

Programming & Development : Alexandra Zaïnal
Original concept : Baudouin d'Aumeries
Technical & hardware support : Manuel Goepfert
Assistance : Marc-Olivier Méhu




SOURCES & CREDITS :

   NOAA